Time;durP1;ratioP1;P1;durP2;ratioP2;P2;SDS_P1;SDS_P2;PMS_P1;PMS_P2;Temp;Humidity;BMP_temperature;BMP_pressure;BME280_temperature;BME280_humidity;BME280_pressure;Samples;Min_cycle;Max_cycle;Signal;HPM_P1;HPM_P2
2022/09/30 00:01:09;;;;;;;5.85;2.92;;;7.20;99.90;;;;;;6115167;23;20010;-87
2022/09/30 00:03:37;;;;;;;6.70;3.40;;;7.20;99.90;;;;;;6118546;23;20044;-87
2022/09/30 00:06:06;;;;;;;4.80;3.10;;;7.10;99.90;;;;;;6116274;23;20481;-88
2022/09/30 00:08:32;;;;;;;4.15;2.83;;;7.10;99.90;;;;;;6117204;23;20410;-87
2022/09/30 00:11:06;;;;;;;3.38;2.60;;;7.10;99.90;;;;;;6116645;23;20002;-87
2022/09/30 00:13:34;;;;;;;2.80;2.45;;;7.10;99.90;;;;;;6117638;23;20476;-86
2022/09/30 00:16:00;;;;;;;3.33;3.03;;;7.10;99.90;;;;;;6116571;23;20081;-88
2022/09/30 00:18:26;;;;;;;4.88;3.33;;;7.10;99.90;;;;;;6118817;23;20504;-86
2022/09/30 00:20:52;;;;;;;4.15;3.00;;;7.00;99.90;;;;;;6117094;23;20009;-86
2022/09/30 00:23:19;;;;;;;3.67;2.55;;;7.00;99.90;;;;;;6119596;23;20017;-87
2022/09/30 00:25:44;;;;;;;2.38;2.17;;;7.00;99.90;;;;;;6115075;23;20002;-86
2022/09/30 00:28:14;;;;;;;5.40;2.70;;;7.00;99.90;;;;;;6116635;23;20013;-87
2022/09/30 00:30:40;;;;;;;4.03;2.35;;;6.90;99.90;;;;;;6117019;23;20458;-87
2022/09/30 00:33:05;;;;;;;2.40;2.20;;;6.90;99.90;;;;;;6118199;23;20082;-87
2022/09/30 00:35:32;;;;;;;2.92;2.60;;;6.90;99.90;;;;;;6116370;23;20006;-88
2022/09/30 00:37:59;;;;;;;7.00;4.38;;;6.90;99.90;;;;;;6117462;23;20106;-86
2022/09/30 00:40:25;;;;;;;3.05;2.28;;;6.80;99.90;;;;;;6116264;23;20060;-86
2022/09/30 00:42:51;;;;;;;3.60;2.42;;;6.80;99.90;;;;;;6117317;23;20061;-86
2022/09/30 00:45:20;;;;;;;4.30;2.38;;;6.70;99.90;;;;;;6116641;23;20408;-86
2022/09/30 00:48:00;;;;;;;3.00;2.40;;;6.80;99.90;;;;;;6117729;23;20002;-86
2022/09/30 00:50:31;;;;;;;2.47;2.28;;;6.70;99.90;;;;;;6115013;23;20051;-88
2022/09/30 00:53:07;;;;;;;3.90;2.90;;;6.80;99.90;;;;;;6117926;23;20451;-87
2022/09/30 00:55:35;;;;;;;2.75;2.30;;;6.70;99.90;;;;;;6116563;23;20045;-87
2022/09/30 00:58:04;;;;;;;4.03;2.15;;;6.70;99.90;;;;;;6119279;23;20003;-87
2022/09/30 01:00:30;;;;;;;2.42;2.22;;;6.60;99.90;;;;;;6116169;23;20517;-86
2022/09/30 01:02:56;;;;;;;5.95;2.90;;;6.60;99.90;;;;;;6118359;23;20047;-86
2022/09/30 01:05:24;;;;;;;3.25;2.25;;;6.60;99.90;;;;;;6114249;23;20327;-85
2022/09/30 01:07:50;;;;;;;2.10;1.90;;;6.60;99.90;;;;;;6118895;23;20009;-87
2022/09/30 01:10:16;;;;;;;2.58;2.38;;;6.60;99.90;;;;;;6116630;23;20006;-87
2022/09/30 01:12:42;;;;;;;3.25;2.45;;;6.60;99.90;;;;;;6118484;23;20106;-88
2022/09/30 01:15:08;;;;;;;3.75;2.83;;;6.60;99.90;;;;;;6114872;23;20013;-86
2022/09/30 01:18:07;;;;;;;3.50;2.72;;;6.60;99.90;;;;;;6118172;22;20317;-86
2022/09/30 01:20:47;;;;;;;3.22;2.33;;;6.60;99.90;;;;;;6115503;23;20002;-87
2022/09/30 01:23:29;;;;;;;3.38;3.00;;;6.60;99.90;;;;;;6116580;23;20153;-84
2022/09/30 01:26:03;;;;;;;7.32;3.00;;;6.60;99.90;;;;;;6117457;23;20009;-86
2022/09/30 01:28:47;;;;;;;3.88;2.83;;;6.60;99.90;;;;;;6117456;23;20006;-84
2022/09/30 01:31:28;;;;;;;2.97;2.47;;;6.50;99.90;;;;;;6116050;23;20074;-88
2022/09/30 01:34:05;;;;;;;4.00;3.40;;;6.50;99.90;;;;;;6118768;23;20010;-86
2022/09/30 01:36:54;;;;;;;3.55;3.22;;;6.50;99.90;;;;;;6116396;23;20006;-87
2022/09/30 01:39:38;;;;;;;4.45;3.25;;;6.50;99.90;;;;;;6119386;23;20009;-87
2022/09/30 01:42:14;;;;;;;3.30;2.72;;;6.50;99.90;;;;;;6116471;23;20044;-88
2022/09/30 01:44:39;;;;;;;2.83;2.53;;;6.40;99.90;;;;;;6118501;23;20327;-86
2022/09/30 01:47:17;;;;;;;5.47;3.58;;;6.40;99.90;;;;;;6116905;23;20002;-85
2022/09/30 01:49:48;;;;;;;4.75;2.83;;;6.40;99.90;;;;;;6118707;23;20002;-87
2022/09/30 01:52:20;;;;;;;3.38;2.83;;;6.30;99.90;;;;;;6117038;23;20017;-87
2022/09/30 01:54:57;;;;;;;3.97;2.85;;;6.30;99.90;;;;;;6118607;23;20419;-88
2022/09/30 01:57:42;;;;;;;3.58;3.05;;;6.30;99.90;;;;;;6117672;23;20013;-87
2022/09/30 02:00:10;;;;;;;2.53;2.33;;;6.30;99.90;;;;;;6116853;23;20476;-88
2022/09/30 02:02:45;;;;;;;3.60;3.30;;;6.20;99.90;;;;;;6114199;23;20378;-86
2022/09/30 02:05:15;;;;;;;5.95;3.38;;;6.20;99.90;;;;;;6117426;23;20009;-87
2022/09/30 02:07:48;;;;;;;3.63;2.67;;;6.20;99.90;;;;;;6118319;23;20020;-86
2022/09/30 02:10:21;;;;;;;5.97;2.78;;;6.30;99.90;;;;;;6117343;23;20067;-87
2022/09/30 02:13:06;;;;;;;4.95;3.13;;;6.20;99.90;;;;;;6117981;23;20008;-87
2022/09/30 02:15:38;;;;;;;4.28;2.83;;;6.20;99.90;;;;;;6117725;23;20108;-87
2022/09/30 02:18:11;;;;;;;5.22;3.45;;;6.20;99.90;;;;;;6117510;23;20022;-87
2022/09/30 02:20:41;;;;;;;4.72;3.60;;;6.20;99.90;;;;;;6117150;23;20013;-87
2022/09/30 02:23:19;;;;;;;5.65;4.10;;;6.10;99.90;;;;;;6117504;23;20025;-87
2022/09/30 02:25:50;;;;;;;4.97;3.72;;;6.10;99.90;;;;;;6116686;23;20010;-86
2022/09/30 02:28:25;;;;;;;4.45;3.15;;;6.10;99.90;;;;;;6117405;23;20033;-87
2022/09/30 02:30:53;;;;;;;;;;;6.10;99.90;;;;;;6116112;23;20073;-85
2022/09/30 02:33:27;;;;;;;2.90;2.65;;;6.10;99.90;;;;;;6115814;23;19901;-87
2022/09/30 02:35:57;;;;;;;4.95;3.20;;;6.10;99.90;;;;;;6116443;23;20025;-87
2022/09/30 02:38:36;;;;;;;5.65;3.60;;;6.20;99.90;;;;;;6116008;23;20521;-86
2022/09/30 02:41:10;;;;;;;9.80;4.75;;;6.10;99.90;;;;;;6116950;23;20367;-87
2022/09/30 02:43:40;;;;;;;7.82;3.95;;;6.10;99.90;;;;;;6115214;23;20045;-86
2022/09/30 02:46:21;;;;;;;5.03;3.78;;;6.10;99.90;;;;;;6117477;23;20006;-87
2022/09/30 02:49:06;;;;;;;4.50;3.63;;;6.10;99.90;;;;;;6117720;23;20006;-87
2022/09/30 02:51:54;;;;;;;8.82;6.18;;;6.10;99.90;;;;;;6115394;23;20041;-87
2022/09/30 02:54:55;;;;;;;9.60;5.50;;;6.00;99.90;;;;;;6117037;23;20029;-87
2022/09/30 02:57:54;;;;;;;8.02;5.70;;;6.10;99.90;;;;;;6117393;23;20073;-86
2022/09/30 03:00:20;;;;;;;5.75;5.00;;;6.10;99.90;;;;;;6114690;23;20002;-86
2022/09/30 03:02:46;;;;;;;6.32;4.75;;;6.10;99.90;;;;;;6114394;23;20075;-87
2022/09/30 03:05:11;;;;;;;6.60;4.20;;;6.10;99.90;;;;;;6116904;23;20021;-86
2022/09/30 03:07:43;;;;;;;5.78;3.88;;;6.10;99.90;;;;;;6117897;23;20016;-88
2022/09/30 03:10:19;;;;;;;4.43;3.95;;;6.10;99.90;;;;;;6115897;23;20005;-87
2022/09/30 03:12:50;;;;;;;4.38;3.90;;;6.10;99.90;;;;;;6115910;23;20017;-87
2022/09/30 03:15:31;;;;;;;7.15;3.95;;;6.20;99.90;;;;;;6116455;23;20012;-87
2022/09/30 03:18:13;;;;;;;6.72;4.45;;;6.20;99.90;;;;;;6117764;23;20439;-87
2022/09/30 03:21:00;;;;;;;5.40;4.20;;;6.10;99.90;;;;;;6116763;23;20009;-87
2022/09/30 03:23:47;;;;;;;4.65;3.80;;;6.10;99.90;;;;;;6117718;23;20017;-87
2022/09/30 03:26:23;;;;;;;4.18;3.25;;;6.10;99.90;;;;;;6117107;23;20005;-85
2022/09/30 03:29:10;;;;;;;4.38;3.47;;;6.10;99.90;;;;;;6118014;23;20006;-88
2022/09/30 03:31:52;;;;;;;7.75;4.35;;;6.10;99.90;;;;;;6114281;23;20010;-86
2022/09/30 03:34:52;;;;;;;4.55;3.88;;;6.20;99.90;;;;;;6115582;23;20454;-87
2022/09/30 03:37:33;;;;;;;4.18;3.30;;;6.20;99.90;;;;;;6116050;23;20010;-87
2022/09/30 03:40:10;;;;;;;4.13;3.40;;;6.10;99.90;;;;;;6116732;23;19998;-87
2022/09/30 03:42:46;;;;;;;4.00;3.42;;;6.10;99.90;;;;;;6116330;23;20070;-86
2022/09/30 03:45:32;;;;;;;4.90;3.50;;;6.10;99.90;;;;;;6116808;23;20399;-87
2022/09/30 03:48:07;;;;;;;4.78;3.30;;;6.10;99.90;;;;;;6115723;23;20006;-86
2022/09/30 03:50:35;;;;;;;;;;;6.10;99.90;;;;;;6116310;23;20066;-86
2022/09/30 03:53:01;;;;;;;6.35;3.67;;;6.00;99.90;;;;;;6115848;23;19901;-86
2022/09/30 03:55:32;;;;;;;10.18;3.45;;;6.00;99.90;;;;;;6115163;23;20002;-87
2022/09/30 03:57:57;;;;;;;3.53;3.00;;;5.90;99.90;;;;;;6116273;23;20047;-87
2022/09/30 04:00:23;;;;;;;5.80;3.22;;;6.00;99.90;;;;;;6114576;23;20443;-86
2022/09/30 04:02:49;;;;;;;3.28;2.97;;;5.90;99.90;;;;;;6116720;23;20372;-87
2022/09/30 04:05:14;;;;;;;3.20;2.90;;;5.90;99.90;;;;;;6116843;23;20293;-87
2022/09/30 04:07:40;;;;;;;7.53;3.05;;;5.90;99.90;;;;;;6117219;23;20051;-86
2022/09/30 04:10:06;;;;;;;6.53;2.75;;;5.90;99.90;;;;;;6117565;23;20052;-86
2022/09/30 04:12:32;;;;;;;6.38;2.70;;;5.90;99.90;;;;;;6116538;23;20002;-85
2022/09/30 04:14:57;;;;;;;3.97;3.05;;;5.80;99.90;;;;;;6116618;23;20451;-86
2022/09/30 04:17:23;;;;;;;3.65;2.80;;;5.80;99.90;;;;;;6116099;23;20076;-86
2022/09/30 04:19:49;;;;;;;2.90;2.20;;;5.80;99.90;;;;;;6116364;23;19994;-86
2022/09/30 04:22:15;;;;;;;2.88;1.92;;;5.80;99.90;;;;;;6116081;23;20014;-86
2022/09/30 04:24:42;;;;;;;2.30;2.13;;;5.80;99.90;;;;;;6117134;23;20006;-87
2022/09/30 04:27:07;;;;;;;2.30;2.10;;;5.90;99.90;;;;;;6117179;23;20024;-87
2022/09/30 04:29:36;;;;;;;2.20;2.00;;;5.90;99.90;;;;;;6117540;23;20431;-87
2022/09/30 04:32:01;;;;;;;2.70;2.05;;;5.90;99.90;;;;;;6116339;23;20016;-86
2022/09/30 04:34:30;;;;;;;1.90;1.80;;;5.90;99.90;;;;;;6117293;23;20077;-87
2022/09/30 04:36:56;;;;;;;2.88;2.33;;;5.90;99.90;;;;;;6116757;23;20002;-87
2022/09/30 04:39:21;;;;;;;2.70;2.50;;;5.90;99.90;;;;;;6117333;23;20438;-86
2022/09/30 04:41:47;;;;;;;2.22;1.90;;;5.80;99.90;;;;;;6116330;23;20024;-86
2022/09/30 04:44:12;;;;;;;4.65;2.63;;;5.80;99.90;;;;;;6118730;23;20084;-87
2022/09/30 04:46:38;;;;;;;5.53;3.55;;;5.80;99.90;;;;;;6118178;23;20002;-86
2022/09/30 04:49:04;;;;;;;2.97;2.35;;;5.80;99.90;;;;;;6113973;23;20018;-86
2022/09/30 04:51:31;;;;;;;4.80;2.85;;;5.80;99.90;;;;;;6114759;23;20010;-87
2022/09/30 04:53:57;;;;;;;2.95;2.40;;;5.80;99.90;;;;;;6114282;23;20010;-87
2022/09/30 04:56:23;;;;;;;3.13;2.80;;;5.70;99.90;;;;;;6117586;23;20006;-87
2022/09/30 04:58:51;;;;;;;3.03;2.83;;;5.70;99.90;;;;;;6118845;23;20002;-88
2022/09/30 05:01:17;;;;;;;3.60;3.30;;;5.70;99.90;;;;;;6116304;23;20037;-87
2022/09/30 05:03:43;;;;;;;8.20;2.40;;;5.60;99.90;;;;;;6118150;23;20104;-87
2022/09/30 05:06:10;;;;;;;6.57;3.10;;;5.60;99.90;;;;;;6116528;23;20109;-88
2022/09/30 05:08:36;;;;;;;3.75;2.30;;;5.50;99.90;;;;;;6118730;23;20411;-86
2022/09/30 05:11:10;;;;;;;3.45;1.98;;;5.50;99.90;;;;;;6117945;23;20005;-87
2022/09/30 05:13:39;;;;;;;3.92;1.90;;;5.50;99.90;;;;;;6118999;23;20055;-88
2022/09/30 05:16:07;;;;;;;3.17;2.20;;;5.40;99.90;;;;;;6117802;23;20037;-88
2022/09/30 05:18:36;;;;;;;2.13;1.90;;;5.40;99.90;;;;;;6118326;22;20037;-87
2022/09/30 05:21:02;;;;;;;1.98;1.80;;;5.40;99.90;;;;;;6117825;23;20017;-86
2022/09/30 05:23:31;;;;;;;2.33;2.13;;;5.40;99.90;;;;;;6117585;23;20064;-86
2022/09/30 05:25:58;;;;;;;2.50;1.67;;;5.40;99.90;;;;;;6117643;23;20002;-87
2022/09/30 05:28:24;;;;;;;2.03;1.83;;;5.40;99.90;;;;;;6117621;23;20002;-87
2022/09/30 05:31:02;;;;;;;2.40;2.20;;;5.40;99.90;;;;;;6115693;23;20374;-87
2022/09/30 05:33:31;;;;;;;1.92;1.73;;;5.50;99.90;;;;;;6119029;23;20006;-87
2022/09/30 05:36:05;;;;;;;1.67;1.58;;;5.50;99.90;;;;;;6117894;23;20013;-86
2022/09/30 05:38:34;;;;;;;2.22;1.92;;;5.50;99.90;;;;;;6119260;23;20013;-87
2022/09/30 05:41:10;;;;;;;2.80;1.70;;;5.50;99.90;;;;;;6118058;23;20024;-86
2022/09/30 05:43:38;;;;;;;2.53;1.70;;;5.50;99.90;;;;;;6117612;23;20135;-86
2022/09/30 05:46:04;;;;;;;7.13;2.15;;;5.50;99.90;;;;;;6118382;23;20194;-87
2022/09/30 05:48:35;;;;;;;1.73;1.63;;;5.50;99.90;;;;;;6118907;23;20124;-88
2022/09/30 05:51:01;;;;;;;2.00;1.90;;;5.50;99.90;;;;;;6117466;23;20105;-87
2022/09/30 05:53:31;;;;;;;2.53;2.17;;;5.50;99.90;;;;;;6118875;23;20030;-87
2022/09/30 05:55:56;;;;;;;2.17;1.98;;;5.60;99.90;;;;;;6090666;23;20020;-86
2022/09/30 05:58:23;;;;;;;2.30;2.10;;;5.60;99.90;;;;;;6119179;23;20471;-86
2022/09/30 06:00:49;;;;;;;2.40;2.20;;;5.60;99.90;;;;;;6118322;23;20008;-84
2022/09/30 06:03:16;;;;;;;3.60;2.60;;;5.60;99.90;;;;;;6118158;23;20021;-87
2022/09/30 06:05:41;;;;;;;2.53;2.33;;;5.70;99.90;;;;;;6118556;23;20439;-86
2022/09/30 06:08:09;;;;;;;2.55;1.98;;;5.70;99.90;;;;;;6117021;23;20002;-87
2022/09/30 06:10:35;;;;;;;7.30;2.85;;;5.70;99.90;;;;;;6116912;23;20012;-88
2022/09/30 06:13:04;;;;;;;3.10;2.65;;;5.70;99.90;;;;;;6118091;23;20385;-87
2022/09/30 06:15:38;;;;;;;4.65;2.85;;;5.80;99.90;;;;;;6118536;23;20006;-87
2022/09/30 06:18:04;;;;;;;3.20;2.50;;;5.90;99.90;;;;;;6117021;22;20030;-87
2022/09/30 06:20:36;;;;;;;3.90;3.20;;;5.90;99.90;;;;;;6118659;23;20436;-87
2022/09/30 06:23:02;;;;;;;6.10;3.30;;;5.90;99.90;;;;;;6117894;23;20454;-87
2022/09/30 06:25:34;;;;;;;4.43;2.90;;;6.00;99.90;;;;;;6118778;23;20006;-87
2022/09/30 06:28:00;;;;;;;4.70;3.10;;;6.00;99.90;;;;;;6118103;23;20028;-87
2022/09/30 06:30:32;;;;;;;3.00;2.80;;;6.00;99.90;;;;;;6118573;23;20037;-86
2022/09/30 06:32:57;;;;;;;2.50;2.30;;;6.10;99.90;;;;;;6118062;23;20077;-87
2022/09/30 06:35:25;;;;;;;3.17;1.95;;;6.10;99.90;;;;;;6118966;23;20079;-86
2022/09/30 06:37:51;;;;;;;4.35;2.45;;;6.30;99.90;;;;;;6118276;23;20013;-88
2022/09/30 06:40:17;;;;;;;2.40;2.15;;;6.20;99.90;;;;;;6119602;23;20006;-88
2022/09/30 06:42:42;;;;;;;2.25;2.05;;;6.30;99.90;;;;;;6117692;23;20522;-87
2022/09/30 06:45:10;;;;;;;2.10;2.00;;;6.30;99.90;;;;;;6118836;23;20073;-85
2022/09/30 06:47:35;;;;;;;2.63;2.30;;;6.40;99.90;;;;;;6118448;23;20026;-88
2022/09/30 06:50:01;;;;;;;5.45;2.03;;;6.50;99.90;;;;;;6119066;23;20013;-87
2022/09/30 06:52:30;;;;;;;2.53;2.20;;;6.60;99.90;;;;;;6219496;23;20304;-87
2022/09/30 06:54:56;;;;;;;3.22;2.53;;;6.60;99.90;;;;;;6118772;23;20014;-88
2022/09/30 06:57:23;;;;;;;3.17;2.67;;;6.70;99.90;;;;;;6118028;23;19998;-85
2022/09/30 06:59:49;;;;;;;4.68;2.65;;;6.70;99.90;;;;;;6118934;23;20032;-87
2022/09/30 07:02:15;;;;;;;2.95;2.55;;;6.80;99.90;;;;;;6117438;23;20020;-87
2022/09/30 07:04:41;;;;;;;4.72;3.22;;;6.90;99.90;;;;;;6118573;23;20073;-88
2022/09/30 07:07:07;;;;;;;9.10;5.20;;;6.90;99.90;;;;;;6117585;23;20037;-85
2022/09/30 07:09:32;;;;;;;8.50;5.28;;;7.00;99.90;;;;;;6119085;23;20013;-88
2022/09/30 07:11:58;;;;;;;9.13;6.05;;;7.10;99.90;;;;;;6116204;23;20036;-88
2022/09/30 07:14:31;;;;;;;18.13;10.35;;;7.10;99.90;;;;;;6220287;23;20452;-88
2022/09/30 07:16:57;;;;;;;39.42;18.30;;;7.20;99.90;;;;;;6117649;22;20022;-88
2022/09/30 07:19:22;;;;;;;37.97;17.80;;;7.30;99.90;;;;;;6118707;23;19998;-88
2022/09/30 07:21:49;;;;;;;39.00;18.20;;;7.30;99.90;;;;;;6117735;23;20013;-89
2022/09/30 07:24:15;;;;;;;31.88;14.23;;;7.40;99.90;;;;;;6118611;23;20013;-87
2022/09/30 07:26:43;;;;;;;25.08;9.57;;;7.50;99.90;;;;;;6117428;23;20497;-89
2022/09/30 07:29:10;;;;;;;13.65;6.45;;;7.70;99.90;;;;;;6118572;23;20336;-88
2022/09/30 07:31:35;;;;;;;8.70;5.20;;;7.80;99.90;;;;;;6117426;23;20013;-88
2022/09/30 07:34:05;;;;;;;4.07;3.40;;;7.90;99.90;;;;;;6118330;23;20037;-88
2022/09/30 07:36:38;;;;;;;8.18;3.42;;;8.00;99.90;;;;;;6117646;23;19998;-89
2022/09/30 07:39:07;;;;;;;6.45;2.90;;;8.10;99.90;;;;;;6118834;23;20009;-89
2022/09/30 07:41:38;;;;;;;5.13;2.92;;;8.10;99.90;;;;;;6117707;23;20012;-88
2022/09/30 07:44:05;;;;;;;2.95;2.65;;;8.20;99.90;;;;;;6118796;23;20042;-88
2022/09/30 07:46:35;;;;;;;3.40;2.50;;;8.30;99.90;;;;;;6117444;23;20013;-88
2022/09/30 07:49:02;;;;;;;3.92;2.90;;;8.40;99.90;;;;;;6118428;23;20443;-89
2022/09/30 07:51:39;;;;;;;3.28;3.05;;;8.50;99.90;;;;;;6117345;23;20048;-89
2022/09/30 07:54:08;;;;;;;4.55;3.40;;;8.60;99.90;;;;;;6118670;23;20006;-87
2022/09/30 07:56:38;;;;;;;4.95;2.92;;;8.70;99.90;;;;;;6117548;23;20073;-89
2022/09/30 07:59:05;;;;;;;4.70;3.90;;;8.80;99.90;;;;;;6118788;23;20002;-89
2022/09/30 08:01:34;;;;;;;5.53;3.58;;;8.90;99.90;;;;;;6117022;23;20006;-88
2022/09/30 08:04:02;;;;;;;5.93;3.60;;;9.00;99.90;;;;;;6118268;23;20010;-89
2022/09/30 08:06:37;;;;;;;4.68;4.20;;;9.00;99.90;;;;;;6117350;23;19998;-88
2022/09/30 08:09:03;;;;;;;6.50;4.53;;;9.20;99.90;;;;;;6118247;23;20328;-89
2022/09/30 08:11:33;;;;;;;5.38;4.10;;;9.40;99.90;;;;;;6116584;23;20390;-89
2022/09/30 08:13:59;;;;;;;6.35;4.10;;;9.50;99.90;;;;;;6118194;23;20089;-88
2022/09/30 08:16:25;;;;;;;5.65;4.10;;;9.60;99.90;;;;;;6117111;23;20045;-90
2022/09/30 08:18:59;;;;;;;10.32;3.90;;;9.70;99.90;;;;;;6117983;23;20429;-88
2022/09/30 08:21:33;;;;;;;4.25;3.50;;;9.80;99.90;;;;;;6117576;23;20010;-88
2022/09/30 08:24:02;;;;;;;9.75;3.78;;;9.90;99.90;;;;;;6119050;23;20428;-89
2022/09/30 08:26:28;;;;;;;6.43;3.40;;;10.00;99.90;;;;;;6118928;23;20298;-89
2022/09/30 08:28:54;;;;;;;6.05;3.65;;;10.00;99.90;;;;;;6119611;23;20048;-88
2022/09/30 08:31:22;;;;;;;4.35;3.38;;;10.10;99.90;;;;;;6118780;23;20006;-87
2022/09/30 08:33:47;;;;;;;5.57;3.78;;;10.10;99.90;;;;;;6119795;23;20005;-90
2022/09/30 08:36:32;;;;;;;3.80;3.10;;;10.20;99.90;;;;;;6119618;23;20033;-90
2022/09/30 08:38:58;;;;;;;2.75;2.50;;;10.20;99.90;;;;;;6119250;23;20002;-90
2022/09/30 08:41:24;;;;;;;5.15;2.90;;;10.30;99.90;;;;;;6118481;23;20006;-89
2022/09/30 08:44:32;;;;;;;6.57;3.10;;;10.30;99.90;;;;;;6119229;23;20440;-90
2022/09/30 08:47:12;;;;;;;3.22;2.80;;;10.30;99.90;;;;;;6118610;23;20307;-89
2022/09/30 08:50:04;;;;;;;8.95;3.53;;;10.30;99.90;;;;;;6119343;23;20009;-88
2022/09/30 08:52:39;;;;;;;6.18;3.13;;;10.30;99.90;;;;;;6118099;23;20443;-90
2022/09/30 08:55:07;;;;;;;4.38;3.20;;;10.40;99.90;;;;;;6119618;23;20005;-89
2022/09/30 08:57:42;;;;;;;5.15;3.33;;;10.50;99.90;;;;;;6118593;23;20008;-89
2022/09/30 09:00:13;;;;;;;7.22;3.63;;;10.60;99.90;;;;;;6119720;23;20075;-86
2022/09/30 09:02:54;;;;;;;4.07;3.67;;;10.70;99.90;;;;;;6118105;23;20520;-89
2022/09/30 09:05:45;;;;;;;4.20;3.78;;;10.70;99.90;;;;;;6119918;23;20002;-87
2022/09/30 09:08:42;;;;;;;6.40;4.00;;;10.80;99.90;;;;;;6118346;23;20447;-89
2022/09/30 09:11:47;;;;;;;7.25;3.72;;;10.80;99.90;;;;;;6080954;23;20095;-88
2022/09/30 09:14:52;;;;;;;7.13;3.13;;;10.90;99.90;;;;;;6119213;23;20026;-89
2022/09/30 09:17:55;;;;;;;2.55;1.77;;;11.00;99.90;;;;;;6118793;23;20057;-88
2022/09/30 09:20:32;;;;;;;5.30;2.03;;;11.10;99.90;;;;;;6119666;23;20006;-88
2022/09/30 09:23:01;;;;;;;3.22;1.52;;;11.30;99.90;;;;;;6118255;23;20040;-89
2022/09/30 09:25:27;;;;;;;4.88;1.52;;;11.50;99.90;;;;;;6116864;23;20002;-88
2022/09/30 09:28:00;;;;;;;3.25;2.17;;;11.50;99.90;;;;;;6118204;23;20013;-87
2022/09/30 09:30:33;;;;;;;3.85;1.90;;;11.60;99.90;;;;;;6118945;23;20001;-89
2022/09/30 09:33:20;;;;;;;9.75;4.55;;;11.60;99.90;;;;;;6116883;23;20005;-89
2022/09/30 09:36:20;;;;;;;10.80;3.58;;;11.80;99.90;;;;;;6118996;23;20006;-89
2022/09/30 09:38:59;;;;;;;7.93;4.20;;;11.90;99.90;;;;;;6113148;23;20013;-88
2022/09/30 09:41:55;;;;;;;6.38;3.53;;;12.10;99.90;;;;;;6119130;23;20048;-88
2022/09/30 09:44:43;;;;;;;10.70;3.75;;;12.20;99.90;;;;;;6119304;23;20016;-88
2022/09/30 09:47:15;;;;;;;10.50;4.10;;;12.30;99.90;;;;;;6118129;23;20008;-89
2022/09/30 09:50:03;;;;;;;2.70;2.47;;;12.30;99.90;;;;;;6118903;23;20377;-89
2022/09/30 09:53:17;;;;;;;9.15;3.33;;;12.30;99.90;;;;;;6117475;23;20006;-90
2022/09/30 09:55:44;;;;;;;6.28;2.75;;;12.40;99.90;;;;;;6074089;23;20009;-89
2022/09/30 09:58:16;;;;;;;5.40;2.42;;;12.30;99.90;;;;;;6113989;23;20005;-88
2022/09/30 10:03:27;;;;;;;5.25;2.35;;;12.30;99.90;;;;;;6121270;23;20084;-88
2022/09/30 10:06:01;;;;;;;8.77;3.20;;;12.40;99.90;;;;;;6117223;23;20067;-89
2022/09/30 10:08:29;;;;;;;8.73;3.63;;;12.50;99.90;;;;;;6117714;23;20435;-89
2022/09/30 10:10:58;;;;;;;9.30;3.05;;;12.50;99.90;;;;;;6118602;23;20424;-89
2022/09/30 10:13:37;;;;;;;7.05;2.45;;;12.60;99.90;;;;;;6117875;23;20076;-88
2022/09/30 10:16:03;;;;;;;4.43;2.47;;;12.60;99.90;;;;;;6117583;23;20387;-88
2022/09/30 10:18:44;;;;;;;10.20;2.83;;;12.70;99.90;;;;;;6114030;22;20049;-86
2022/09/30 10:21:22;;;;;;;5.13;2.50;;;12.90;99.90;;;;;;6115106;23;20017;-88
2022/09/30 10:23:48;;;;;;;8.68;2.47;;;13.10;99.90;;;;;;6116617;23;20024;-87
2022/09/30 10:26:13;;;;;;;9.50;2.28;;;13.10;99.90;;;;;;6117055;23;20037;-89
2022/09/30 10:29:08;;;;;;;5.35;1.60;;;13.10;99.90;;;;;;6116431;23;20006;-89
2022/09/30 10:31:40;;;;;;;4.82;1.73;;;13.20;99.90;;;;;;6116547;23;20010;-88
2022/09/30 10:34:20;;;;;;;2.53;1.10;;;13.30;99.90;;;;;;6116562;23;19998;-85
2022/09/30 10:36:47;;;;;;;1.25;0.90;;;13.40;99.90;;;;;;6116623;23;20010;-90
2022/09/30 10:39:25;;;;;;;3.50;1.00;;;13.50;99.90;;;;;;6118032;23;20528;-88
2022/09/30 10:42:18;;;;;;;1.55;0.80;;;13.50;99.90;;;;;;6116801;23;20067;-85
2022/09/30 10:44:44;;;;;;;4.32;1.00;;;13.50;99.90;;;;;;6118335;23;20006;-90
2022/09/30 10:47:16;;;;;;;5.78;1.85;;;13.70;99.90;;;;;;6116989;23;20073;-88
2022/09/30 10:49:47;;;;;;;1.15;0.70;;;13.80;99.90;;;;;;6117523;23;20498;-89
2022/09/30 10:52:23;;;;;;;9.07;1.20;;;13.70;99.90;;;;;;6115872;23;20006;-88
2022/09/30 10:54:59;;;;;;;3.58;1.70;;;13.80;99.90;;;;;;6117867;23;20048;-89
2022/09/30 10:57:34;;;;;;;3.15;1.52;;;13.80;99.90;;;;;;6114416;23;20003;-89
2022/09/30 11:00:20;;;;;;;23.23;3.97;;;13.80;99.90;;;;;;6118400;23;20009;-88
2022/09/30 11:03:12;;;;;;;1.35;0.90;;;13.90;99.90;;;;;;6115496;23;20343;-87
2022/09/30 11:05:46;;;;;;;0.95;0.85;;;14.10;99.90;;;;;;6111701;23;20002;-88
2022/09/30 11:08:21;;;;;;;3.10;1.20;;;14.20;99.90;;;;;;6113266;23;20033;-89
2022/09/30 11:11:01;;;;;;;3.88;1.48;;;14.20;99.90;;;;;;6113149;23;20454;-87
2022/09/30 11:13:42;;;;;;;3.75;1.00;;;14.30;99.90;;;;;;6114344;23;20013;-84
2022/09/30 11:16:08;;;;;;;2.60;0.90;;;14.50;99.90;;;;;;6117823;23;20411;-88
2022/09/30 11:18:49;;;;;;;5.25;1.10;;;14.60;99.90;;;;;;6113552;23;20021;-86
2022/09/30 11:21:55;;;;;;;1.40;0.95;;;14.70;99.90;;;;;;6114910;23;20006;-89
2022/09/30 11:24:24;;;;;;;1.33;1.20;;;14.70;99.90;;;;;;6093227;23;20014;-85
2022/09/30 11:26:59;;;;;;;6.75;1.05;;;14.60;99.90;;;;;;6116584;23;20006;-85
2022/09/30 11:29:43;;;;;;;;;;;14.50;99.90;;;;;;6115834;23;20331;-88
2022/09/30 11:32:38;;;;;;;7.00;1.15;;;14.40;99.90;;;;;;6116720;23;19908;-88
2022/09/30 11:35:31;;;;;;;7.22;2.53;;;14.30;99.90;;;;;;6118185;23;20013;-87
2022/09/30 11:38:45;;;;;;;3.03;1.60;;;14.40;99.90;;;;;;6116756;23;20068;-87
2022/09/30 11:41:34;;;;;;;4.82;1.20;;;14.40;99.90;;;;;;6109939;23;20006;-85
2022/09/30 11:44:21;;;;;;;3.85;1.27;;;14.50;99.90;;;;;;6115459;23;20330;-88
2022/09/30 11:46:54;;;;;;;8.98;1.88;;;14.60;99.90;;;;;;6118660;23;20013;-86
2022/09/30 11:49:38;;;;;;;2.03;1.00;;;14.60;99.90;;;;;;6116009;23;20299;-88
2022/09/30 11:52:10;;;;;;;10.02;2.22;;;14.60;99.90;;;;;;6117844;23;20036;-88
2022/09/30 11:54:58;;;;;;;16.38;2.25;;;14.60;99.90;;;;;;6117718;23;20076;-83
2022/09/30 11:57:31;;;;;;;2.55;0.95;;;14.70;99.90;;;;;;6117378;23;20006;-89
2022/09/30 12:00:11;;;;;;;6.00;1.08;;;14.70;99.90;;;;;;6117905;23;20002;-89
2022/09/30 12:02:42;;;;;;;3.97;1.20;;;14.60;99.90;;;;;;6117335;23;20394;-89
2022/09/30 12:05:15;;;;;;;3.15;1.33;;;14.50;99.90;;;;;;6116746;23;20005;-85
2022/09/30 12:07:46;;;;;;;4.40;1.00;;;14.60;99.90;;;;;;6113326;23;20440;-85
2022/09/30 12:10:32;;;;;;;2.63;1.00;;;14.80;99.90;;;;;;6115807;23;20506;-87
2022/09/30 12:13:11;;;;;;;2.00;0.90;;;14.80;99.90;;;;;;6115925;23;20443;-87
2022/09/30 12:15:39;;;;;;;2.50;0.98;;;14.80;99.90;;;;;;6118008;23;20316;-87
2022/09/30 12:18:20;;;;;;;2.88;1.15;;;14.90;99.90;;;;;;6116907;23;20093;-87
2022/09/30 12:20:54;;;;;;;2.50;1.30;;;15.00;99.90;;;;;;6116295;23;20030;-88
2022/09/30 12:23:35;;;;;;;5.22;0.95;;;15.10;99.90;;;;;;6115635;23;20111;-87
2022/09/30 12:26:03;;;;;;;2.10;1.30;;;15.30;99.90;;;;;;6115901;23;20010;-87
2022/09/30 12:31:43;;;;;;;3.65;1.05;;;15.40;99.90;;;;;;6116922;23;20067;-85
2022/09/30 12:34:30;;;;;;;10.38;1.23;;;15.50;99.90;;;;;;6115631;23;20328;-86
2022/09/30 12:37:15;;;;;;;1.90;1.17;;;15.50;99.90;;;;;;6116726;23;20061;-86
2022/09/30 12:39:57;;;;;;;2.05;1.50;;;15.50;99.90;;;;;;6117567;23;20445;-87
2022/09/30 12:42:42;;;;;;;3.50;1.23;;;15.60;99.90;;;;;;6115951;23;20026;-88
2022/09/30 12:45:30;;;;;;;4.10;1.40;;;15.40;99.90;;;;;;6116631;23;20500;-88
2022/09/30 12:47:59;;;;;;;1.83;1.10;;;15.20;99.90;;;;;;6116811;23;20157;-88
2022/09/30 12:50:33;;;;;;;3.10;1.40;;;15.20;99.90;;;;;;6117581;23;20006;-88
2022/09/30 12:53:15;;;;;;;7.17;1.50;;;15.10;99.90;;;;;;6116097;23;20038;-85
2022/09/30 12:55:44;;;;;;;6.93;1.95;;;15.20;99.90;;;;;;6116981;23;20222;-89
2022/09/30 12:58:20;;;;;;;2.92;1.33;;;15.40;99.90;;;;;;6114149;23;20040;-88
2022/09/30 13:01:05;;;;;;;2.70;1.17;;;15.40;99.90;;;;;;6117077;23;20006;-88
2022/09/30 13:03:44;;;;;;;3.25;1.40;;;15.50;99.90;;;;;;6116365;23;20043;-90
2022/09/30 13:06:10;;;;;;;6.68;1.52;;;15.50;99.90;;;;;;6118640;23;20002;-87
2022/09/30 13:08:46;;;;;;;4.40;1.92;;;15.50;99.90;;;;;;6117022;23;20439;-88
2022/09/30 13:11:43;;;;;;;8.02;3.35;;;15.60;99.90;;;;;;6118363;23;20081;-86
2022/09/30 13:14:14;;;;;;;5.85;2.47;;;15.80;99.90;;;;;;6115713;23;20040;-89
2022/09/30 13:17:09;;;;;;;4.55;1.95;;;15.80;99.90;;;;;;6118523;23;20081;-88
2022/09/30 13:19:35;;;;;;;5.72;2.95;;;15.80;99.90;;;;;;6212031;23;20018;-89
2022/09/30 13:22:20;;;;;;;4.03;1.88;;;15.80;99.90;;;;;;6213029;23;20331;-87
2022/09/30 13:25:03;;;;;;;3.17;1.38;;;15.60;99.90;;;;;;6212742;23;20142;-88
2022/09/30 13:27:48;;;;;;;4.47;1.80;;;15.60;99.90;;;;;;6212385;23;20000;-89
2022/09/30 13:30:17;;;;;;;6.95;2.28;;;15.40;99.90;;;;;;6212841;23;20004;-89
2022/09/30 13:33:07;;;;;;;2.85;1.30;;;15.40;99.90;;;;;;6212098;23;20243;-86